• Join FlightAware (Why Join?)
  • Login
  • US Flag 
06:31PM EDT


 

Airport Tracker/Info


-or-


 

Live Flight TrackerFlight Track Log ✈ ASH2638 ✈ 17-Apr-2013 ✈ KPHX - KONT

Flight Track Log - Related Links

Times and Time Zones

All times are in EDT time to prevent confusion due to time zone crossing. See the ASH2638 flight status page for this flight to view local times or setup timezone preferences in your user account.

Time Position Orientation Groundspeed Altitude Reporting Facility
EDT Latitude Longitude Course Direction KTS MPH feet Rate Location/Type
05:29PM 33.4333 -111.9833 270° West 1 1 2,300  Level Phoenix TRACON
05:30PM 33.4333 -111.9833 270° West 12 14 1,200 -240 Descending Phoenix TRACON
05:32PM 33.4542 -112.1391 270° West  Level Estimated
05:32PM 33.4333 -112.0167 270° West 130 150 1,700  Level Phoenix TRACON
05:33PM 33.4117 -112.0769 247° West 182 209 3,400 1,860 Climbing Albuquerque Center
05:34PM 33.3850 -112.1475 246° West 227 261 5,800 3,000 Climbing Albuquerque Center
05:35PM 33.4333 -112.3226 270° West  Level FlightAware Approximate
05:35PM 33.3672 -112.2428 257° West 246 283 9,600  Level Albuquerque Center
05:36PM 33.3806 -112.3261 281° West 255 293 12,200 2,340 Climbing Albuquerque Center
05:37PM 33.3928 -112.4178 279° West 276 318 14,400 2,100 Climbing Albuquerque Center
05:38PM 33.4081 -112.5114 281° West 286 329 16,600 2,100 Climbing Albuquerque Center
05:40PM 33.4361 -112.6939 280° West 316 364 20,200 2,280 Climbing Los Angeles Center
05:41PM 33.4411 -112.7361 278° West 318 366 21,400 2,040 Climbing Albuquerque Center
05:42PM 33.4558 -112.8336 280° West 309 356 23,200 1,620 Climbing Albuquerque Center
05:43PM 33.4758 -112.9356 283° West 311 358 24,800 1,560 Climbing Albuquerque Center
05:44PM 33.4956 -113.0394 283° West 319 367 26,500 1,500 Climbing Albuquerque Center
05:45PM 33.5158 -113.1408 284° West 317 365 27,900 1,260 Climbing Albuquerque Center
05:46PM 33.5361 -113.2467 283° West 323 372 29,100 1,320 Climbing Albuquerque Center
05:47PM 33.5600 -113.3756 283° West 331 381 30,700 1,260 Climbing Albuquerque Center
05:48PM 33.5797 -113.4800 283° West 326 375 31,800 600 Climbing Albuquerque Center
05:49PM 33.5994 -113.5897 282° West 333 383 32,000 60 Climbing Albuquerque Center
05:50PM 33.6231 -113.7153 283° West 354 407 32,000  Level Albuquerque Center
05:51PM 33.6447 -113.8311 283° West 357 411 32,000  Level Albuquerque Center
05:52PM 33.6653 -113.9467 282° West 356 410 32,000  Level Albuquerque Center
05:53PM 33.6758 -114.0678 276° West 361 415 32,000  Level Albuquerque Center
05:54PM 33.6861 -114.1889 276° West 364 419 32,000  Level Albuquerque Center
05:55PM 33.6989 -114.3242 277° West 366 421 32,000  Level Albuquerque Center
05:56PM 33.7083 -114.4083 278° West 366 421 32,000  Level Los Angeles Center
05:57PM 33.7189 -114.5292 276° West 366 421 32,000  Level Los Angeles Center
05:58PM 33.7303 -114.6497 277° West 366 421 32,000  Level Los Angeles Center
05:59PM 33.7400 -114.7725 275° West 369 425 32,000  Level Los Angeles Center
06:00PM 33.7528 -114.9175 276° West 366 421 32,000  Level Los Angeles Center
06:01PM 33.7631 -115.0369 276° West 363 418 32,000  Level Los Angeles Center
06:02PM 33.7717 -115.1564 275° West 361 415 32,000  Level Los Angeles Center
06:03PM 33.7825 -115.2756 276° West 361 415 32,000 -180 Level Los Angeles Center
06:04PM 33.7917 -115.3956 275° West 362 417 31,700 -960 Descending Los Angeles Center
06:05PM 33.8014 -115.5142 276° West 359 413 30,100 -1,740 Descending Los Angeles Center
06:06PM 33.8136 -115.6578 276° West 361 415 28,200 -1,560 Descending Los Angeles Center
06:07PM 33.8219 -115.7731 275° West 350 403 26,600 -1,560 Descending Los Angeles Center
06:08PM 33.8308 -115.9061 275° West 338 389 24,700 -1,260 Descending Los Angeles Center
06:09PM 33.8397 -116.0197 275° West 343 395 24,000 -360 Descending Los Angeles Center
06:10PM 33.8492 -116.1325 276° West 342 394 24,000 -780 Level Los Angeles Center
06:11PM 33.8578 -116.2619 275° West 321 369 22,500 -1,740 Descending Los Angeles Center
06:12PM 33.8653 -116.3636 275° West 309 356 20,500 -1,800 Descending Los Angeles Center
06:13PM 33.8722 -116.4650 275° West 306 352 18,800 -1,260 Descending Los Angeles Center
06:14PM 33.8764 -116.5647 273° West 301 346 18,000 -420 Descending Los Angeles Center
06:16PM 33.8817 -116.6528 274° West 270 311 18,000 -480 Level Los Angeles Center
06:17PM 33.8858 -116.7608 273° West 271 312 17,000 -2,160 Descending Los Angeles Center
06:18PM 33.8897 -116.8511 273° West 272 313 13,600 -2,880 Descending Los Angeles Center
06:19PM 33.9122 -116.9408 287° West 280 322 11,100 -1,680 Descending Los Angeles Center
06:20PM 33.9378 -117.0258 290° West 273 314 10,200 -1,020 Descending Los Angeles Center
06:21PM 33.9661 -117.1103 292° West 272 313 9,000 -1,380 Descending Los Angeles Center
06:22PM 34.0011 -117.2036 294° West 267 307 7,400 -1,500 Descending Los Angeles Center
06:23PM 34.0275 -117.2814 292° West 257 296 6,000 -1,380 Descending Los Angeles Center
06:24PM 34.0544 -117.3553 294° West 249 287 4,600 -1,200 Descending Los Angeles Center
06:25PM 34.0569 -117.4319 272° West 239 275 3,600 -1,080 Descending Los Angeles Center
06:26PM 34.0583 -117.4992 271° West 218 251 2,400 -1,200 Descending Los Angeles Center
06:27PM 34.0500 -117.5500 259° West 154 177 1,500 -1,200 Descending Southern California TRACON